Time;durP1;ratioP1;P1;durP2;ratioP2;P2;SDS_P1;SDS_P2;PMS_P1;PMS_P2;Temp;Humidity;BMP_temperature;BMP_pressure;BME280_temperature;BME280_humidity;BME280_pressure;Samples;Min_cycle;Max_cycle;Signal;HPM_P1;HPM_P2
2023/10/13 00:02:13;;;;;;;21.02;14.93;;;;;;;16.31;83.03;101204.06;7392193;19;20096;-66
2023/10/13 00:04:42;;;;;;;27.30;16.50;;;;;;;16.29;83.00;101195.31;7392693;19;20011;-66
2023/10/13 00:07:09;;;;;;;22.10;15.30;;;;;;;16.28;83.31;101191.81;7392825;19;20032;-67
2023/10/13 00:09:37;;;;;;;23.73;16.17;;;;;;;16.30;83.24;101187.16;7389250;19;20014;-67
2023/10/13 00:12:13;;;;;;;23.27;16.17;;;;;;;16.25;83.68;101183.22;7392418;19;20018;-67
2023/10/13 00:14:41;;;;;;;22.73;15.35;;;;;;;16.29;83.99;101187.28;7393170;19;20026;-66
2023/10/13 00:17:19;;;;;;;23.45;15.25;;;;;;;16.31;83.87;101188.84;7390824;19;20018;-66
2023/10/13 00:19:51;;;;;;;22.27;15.38;;;;;;;16.34;84.00;101177.06;7389296;19;20488;-66
2023/10/13 00:22:22;;;;;;;23.13;16.35;;;;;;;16.36;83.75;101171.56;7391672;19;20011;-66
2023/10/13 00:24:51;;;;;;;22.02;15.50;;;;;;;16.39;84.01;101168.59;7392843;19;20011;-64
2023/10/13 00:30:15;;;;;;;27.90;17.83;;;;;;;16.45;84.07;101157.34;7389543;19;20038;-70
2023/10/13 00:32:46;;;;;;;26.58;17.90;;;;;;;16.26;84.66;101156.38;7392815;19;20029;-70
2023/10/13 00:35:28;;;;;;;24.38;16.35;;;;;;;16.31;84.86;101150.59;7392184;19;20078;-71
2023/10/13 00:38:04;;;;;;;25.00;16.42;;;;;;;16.31;84.89;101147.91;7391466;19;20135;-71
2023/10/13 00:48:33;;;;;;;22.40;16.23;;;;;;;16.32;85.60;101150.44;7390978;19;20015;-65
2023/10/13 00:51:03;;;;;;;24.02;16.83;;;;;;;16.40;85.75;101151.56;7390436;19;20039;-65
2023/10/13 00:53:33;;;;;;;24.90;17.75;;;;;;;16.47;85.29;101140.16;7389309;19;20080;-64
2023/10/13 00:56:08;;;;;;;24.98;17.70;;;;;;;16.44;85.18;101137.78;7390877;19;20478;-65
2023/10/13 00:58:38;;;;;;;24.45;16.92;;;;;;;16.43;85.86;101130.75;7389335;19;20014;-64
2023/10/13 01:01:18;;;;;;;27.23;17.90;;;;;;;16.49;85.86;101132.88;7398302;19;20037;-64
2023/10/13 01:03:55;;;;;;;28.02;18.67;;;;;;;16.57;85.23;101124.97;7398998;19;20022;-64
2023/10/13 01:06:25;;;;;;;22.45;16.63;;;;;;;16.60;85.58;101123.84;7397382;19;20022;-65
2023/10/13 01:09:10;;;;;;;25.45;17.70;;;;;;;16.66;85.72;101111.72;7394278;19;20052;-64
2023/10/13 01:11:46;;;;;;;25.13;18.48;;;;;;;16.62;86.20;101108.50;7394352;19;20007;-64
2023/10/13 01:14:18;;;;;;;24.48;17.40;;;;;;;16.66;85.96;101109.88;7401659;19;20039;-63
2023/10/13 01:16:52;;;;;;;22.13;16.65;;;;;;;16.72;86.04;101111.16;7398007;19;20043;-63
2023/10/13 01:19:24;;;;;;;24.08;16.98;;;;;;;16.73;85.70;101102.13;7394874;19;20014;-64
2023/10/13 01:22:06;;;;;;;26.25;17.92;;;;;;;16.75;85.86;101108.19;7398493;19;20021;-64
2023/10/13 01:24:34;;;;;;;25.17;18.85;;;;;;;16.72;86.30;101106.66;7393969;19;20367;-64
2023/10/13 01:27:20;;;;;;;26.33;18.73;;;;;;;16.79;86.21;101104.28;7398327;19;20011;-64
2023/10/13 01:29:48;;;;;;;23.33;17.77;;;;;;;16.76;86.21;101096.53;7397586;19;20035;-64
2023/10/13 01:32:21;;;;;;;25.10;17.33;;;;;;;16.77;86.18;101093.72;7395040;19;20031;-64
2023/10/13 01:34:49;;;;;;;27.08;19.25;;;;;;;16.73;86.76;101092.31;7397565;19;20028;-64
2023/10/13 01:37:19;;;;;;;24.63;18.40;;;;;;;16.78;86.81;101090.03;7397603;19;20098;-64
2023/10/13 01:39:49;;;;;;;22.27;16.77;;;;;;;16.84;86.48;101085.13;7391835;19;20030;-64
2023/10/13 01:42:24;;;;;;;25.17;17.67;;;;;;;16.81;86.83;101076.38;7397881;19;20379;-64
2023/10/13 01:44:52;;;;;;;25.70;18.73;;;;;;;16.83;86.93;101078.06;7397345;19;20014;-64
2023/10/13 01:47:22;;;;;;;26.00;18.88;;;;;;;16.80;87.15;101073.88;7396219;19;20022;-64
2023/10/13 01:49:50;;;;;;;26.63;19.25;;;;;;;16.83;87.06;101073.56;7390226;19;20398;-64
2023/10/13 01:52:18;;;;;;;23.67;18.17;;;;;;;16.87;87.35;101074.13;7394792;19;20044;-64
2023/10/13 01:54:48;;;;;;;26.85;18.33;;;;;;;16.89;87.19;101074.81;7396987;19;20021;-64
2023/10/13 01:57:17;;;;;;;22.70;17.30;;;;;;;16.87;87.53;101069.63;7396936;19;20018;-64
2023/10/13 01:59:49;;;;;;;23.38;16.92;;;;;;;16.93;87.56;101061.00;7393550;19;20031;-63
2023/10/13 02:02:28;;;;;;;21.98;17.00;;;;;;;16.91;87.67;101071.00;7396259;19;20035;-63
2023/10/13 02:05:00;;;;;;;23.60;17.05;;;;;;;16.93;87.60;101062.81;7396432;19;20022;-63
2023/10/13 02:07:34;;;;;;;23.15;17.98;;;;;;;16.90;87.88;101069.31;7396477;19;20043;-63
2023/10/13 02:10:06;;;;;;;23.20;16.60;;;;;;;16.93;88.07;101065.50;7395361;19;20014;-63
2023/10/13 02:12:42;;;;;;;23.15;16.77;;;;;;;16.93;88.24;101060.16;7391850;19;20029;-63
2023/10/13 02:15:21;;;;;;;21.70;16.75;;;;;;;16.95;88.18;101059.03;7394115;19;20014;-63
2023/10/13 02:17:52;;;;;;;25.80;18.98;;;;;;;16.95;88.05;101060.88;7399941;19;20018;-63
2023/10/13 02:20:22;;;;;;;24.85;18.38;;;;;;;16.97;88.09;101059.69;7397850;19;20402;-64
2023/10/13 02:22:50;;;;;;;23.35;17.48;;;;;;;17.00;88.31;101050.56;7399566;19;20512;-63
2023/10/13 02:25:35;;;;;;;21.88;17.17;;;;;;;17.03;88.64;101048.44;7397974;19;20353;-64
2023/10/13 02:28:13;;;;;;;23.08;17.63;;;;;;;17.06;88.33;101052.66;7396332;19;20026;-64
2023/10/13 02:30:48;;;;;;;25.13;19.63;;;;;;;17.04;88.35;101041.22;7397435;19;20028;-64
2023/10/13 02:33:21;;;;;;;25.58;19.88;;;;;;;16.98;89.07;101031.97;7396876;19;20014;-64
2023/10/13 02:35:55;;;;;;;27.42;20.15;;;;;;;16.96;89.26;101033.94;7398802;19;20018;-64
2023/10/13 02:41:25;;;;;;;24.80;19.88;;;;;;;17.05;89.10;101017.00;7398702;19;20394;-64
2023/10/13 02:43:55;;;;;;;24.35;19.10;;;;;;;17.04;89.19;101017.16;7398773;19;20570;-64
2023/10/13 02:46:24;;;;;;;26.77;20.30;;;;;;;17.10;88.95;101011.22;7398484;19;20022;-64
2023/10/13 02:48:57;;;;;;;26.98;20.42;;;;;;;17.04;89.30;101012.63;7395719;19;20027;-64
2023/10/13 02:51:36;;;;;;;26.10;20.45;;;;;;;17.08;89.20;101010.50;7396793;19;20037;-64
2023/10/13 02:54:10;;;;;;;24.70;20.25;;;;;;;17.08;89.15;100997.13;7398673;19;20024;-64
2023/10/13 02:56:49;;;;;;;26.95;20.40;;;;;;;17.11;89.46;101001.34;7397641;19;20014;-64
2023/10/13 02:59:33;;;;;;;28.98;20.95;;;;;;;17.10;89.13;100995.16;7393904;19;20030;-64
2023/10/13 03:02:18;;;;;;;30.52;21.45;;;;;;;17.12;89.31;100995.00;7398582;19;20019;-64
2023/10/13 03:05:10;;;;;;;34.53;22.55;;;;;;;17.18;88.91;100991.72;7397875;19;20039;-64
2023/10/13 03:07:37;;;;;;;29.83;21.27;;;;;;;17.09;89.55;100990.78;7396021;19;20014;-64
2023/10/13 03:10:12;;;;;;;27.52;20.45;;;;;;;17.17;89.51;100987.34;7396234;19;20035;-64
2023/10/13 03:12:40;;;;;;;28.45;21.42;;;;;;;17.15;89.74;100986.69;7394055;19;20359;-64
2023/10/13 03:15:17;;;;;;;29.92;21.05;;;;;;;17.19;89.04;100985.38;7397974;19;20010;-64
2023/10/13 03:17:45;;;;;;;29.08;21.30;;;;;;;17.20;89.41;100979.88;7397105;19;20031;-64
2023/10/13 03:20:22;;;;;;;28.73;20.27;;;;;;;17.27;89.20;100975.59;7396222;19;20073;-64
2023/10/13 03:22:52;;;;;;;32.28;20.83;;;;;;;17.23;89.51;100970.69;7393272;19;20029;-64
2023/10/13 03:25:29;;;;;;;;;;;;;;;;;;;;;
2023/10/13 03:31:02;;;;;;;25.92;20.40;;;;;;;17.25;89.15;100972.25;7395710;19;20027;-64
2023/10/13 03:33:29;;;;;;;24.90;20.50;;;;;;;17.24;89.84;100967.88;7396260;19;20014;-64
2023/10/13 03:35:59;;;;;;;26.58;20.17;;;;;;;17.26;89.29;100960.53;7396969;19;20471;-64
2023/10/13 03:38:27;;;;;;;26.38;20.05;;;;;;;17.29;89.34;100967.44;7395225;19;20015;-64
2023/10/13 03:41:08;;;;;;;;;;;;;;;;;;;;;
2023/10/13 03:44:17;;;;;;;24.88;18.98;;;;;;;17.32;89.10;100966.25;7395502;19;20367;-64
2023/10/13 03:46:30;;;;;;;;;;;;;;;17.14;90.11;100961.75;7394184;19;20030;-64
2023/10/13 03:49:01;;;;;;;27.45;18.48;;;;;;;17.11;90.40;100959.38;7394804;19;19923;-64
2023/10/13 03:51:32;;;;;;;24.85;18.10;;;;;;;17.25;89.73;100952.66;7395853;19;20089;-64
2023/10/13 03:54:07;;;;;;;27.33;18.98;;;;;;;17.27;89.67;100954.19;7397655;19;20014;-65
2023/10/13 03:59:17;;;;;;;21.40;17.15;;;;;;;17.29;89.37;100957.56;7395096;19;20021;-64
2023/10/13 04:02:00;;;;;;;24.00;18.13;;;;;;;17.33;89.41;100949.25;7397140;19;20031;-64
2023/10/13 04:04:36;;;;;;;24.33;18.20;;;;;;;17.30;89.40;100947.69;7396074;19;20015;-64
2023/10/13 04:17:28;;;;;;;26.20;18.63;;;;;;;17.34;89.48;100924.13;7395200;19;20015;-64
2023/10/13 04:36:13;;;;;;;;;;;;;;;17.12;90.91;100893.31;7395004;19;20025;-64
2023/10/13 04:41:37;;;;;;;22.27;16.77;;;;;;;17.23;90.39;100877.03;7394288;19;20022;-64
2023/10/13 04:49:29;;;;;;;22.63;16.48;;;;;;;17.33;89.90;100860.91;7388982;19;20098;-64
2023/10/13 04:52:12;;;;;;;21.73;16.83;;;;;;;17.34;89.71;100854.53;7390264;19;20031;-64
2023/10/13 05:47:22;;;;;;;22.20;16.52;;;;;;;17.44;89.74;100774.97;7392447;19;20026;-63
2023/10/13 05:49:50;;;;;;;23.85;15.98;;;;;;;17.40;89.74;100774.44;7392770;19;20488;-64
2023/10/13 06:28:42;;;;;;;21.60;15.70;;;;;;;17.38;90.36;100717.53;7393282;19;20371;-63
2023/10/13 06:31:21;;;;;;;;;;;;;;;17.22;91.07;100712.91;7396447;19;20024;-63
2023/10/13 06:33:49;;;;;;;19.42;14.68;;;;;;;17.22;91.38;100704.88;7393114;19;19994;-63
2023/10/13 06:36:17;;;;;;;19.52;15.05;;;;;;;17.41;90.84;100701.16;7395736;19;20018;-63
2023/10/13 06:38:54;;;;;;;20.23;14.88;;;;;;;17.42;90.62;100693.97;7392849;19;20027;-63
2023/10/13 06:41:31;;;;;;;19.88;14.13;;;;;;;17.47;90.52;100688.97;7394829;19;20019;-63
2023/10/13 06:43:59;;;;;;;20.52;14.90;;;;;;;17.46;90.03;100682.78;7395258;19;20015;-63
2023/10/13 06:46:28;;;;;;;19.48;14.10;;;;;;;17.53;90.01;100680.28;7395292;19;20022;-63
2023/10/13 06:48:59;;;;;;;18.83;13.60;;;;;;;17.52;89.66;100675.94;7392408;19;20043;-63
2023/10/13 06:51:31;;;;;;;19.58;14.38;;;;;;;17.50;89.83;100667.22;7395128;19;20015;-63
2023/10/13 06:54:00;;;;;;;22.02;14.35;;;;;;;17.47;89.79;100663.03;7393227;19;20429;-63
2023/10/13 06:56:28;;;;;;;20.80;14.57;;;;;;;17.39;90.57;100656.78;7393945;19;20018;-62
2023/10/13 06:58:59;;;;;;;17.60;14.00;;;;;;;17.40;90.47;100640.59;7392227;19;20023;-62
2023/10/13 07:01:28;;;;;;;22.17;14.20;;;;;;;17.50;89.98;100637.78;7395479;19;20018;-62
2023/10/13 07:04:01;;;;;;;21.35;15.73;;;;;;;17.50;89.99;100635.94;7394740;19;20386;-62
2023/10/13 07:06:30;;;;;;;19.10;13.80;;;;;;;17.49;89.95;100622.72;7395118;19;20019;-62
2023/10/13 07:09:03;;;;;;;18.52;14.52;;;;;;;17.52;89.97;100622.41;7393212;19;20026;-62
2023/10/13 07:11:34;;;;;;;18.48;14.65;;;;;;;17.50;89.76;100622.53;7395042;19;20029;-62
2023/10/13 07:14:16;;;;;;;19.23;15.02;;;;;;;17.50;89.99;100619.03;7392044;19;20022;-62
2023/10/13 07:16:59;;;;;;;19.25;14.40;;;;;;;17.52;89.93;100625.91;7394289;19;20421;-63
2023/10/13 07:19:28;;;;;;;18.50;14.60;;;;;;;17.41;90.36;100622.69;7391067;19;20014;-63
2023/10/13 07:21:59;;;;;;;20.85;15.70;;;;;;;17.46;89.98;100615.00;7393977;19;20077;-63
2023/10/13 07:24:31;;;;;;;19.17;15.38;;;;;;;17.51;89.70;100605.50;7393373;19;20487;-63
2023/10/13 07:27:05;;;;;;;22.00;16.70;;;;;;;17.49;89.96;100599.44;7393970;19;20563;-63
2023/10/13 07:29:36;;;;;;;24.70;17.70;;;;;;;17.52;90.17;100600.97;7391090;19;20036;-63
2023/10/13 07:32:05;;;;;;;22.45;17.90;;;;;;;17.48;90.20;100584.41;7393423;19;20023;-63
2023/10/13 07:34:34;;;;;;;20.52;17.95;;;;;;;17.50;90.32;100590.41;7394233;19;20044;-63
2023/10/13 07:37:07;;;;;;;20.88;17.67;;;;;;;17.47;90.26;100604.13;7394487;19;20378;-63
2023/10/13 07:39:38;;;;;;;18.90;16.70;;;;;;;17.45;90.44;100597.25;7390758;19;20022;-63
2023/10/13 07:42:14;;;;;;;20.08;16.08;;;;;;;17.50;90.49;100608.31;7394699;19;20488;-64
2023/10/13 07:44:55;;;;;;;20.25;16.23;;;;;;;17.46;90.31;100582.88;7394154;19;20014;-63
2023/10/13 07:47:26;;;;;;;19.88;15.32;;;;;;;17.42;90.26;100586.88;7393201;19;20073;-64
2023/10/13 07:49:56;;;;;;;19.10;14.95;;;;;;;17.35;90.65;100597.38;7390639;19;20014;-64
2023/10/13 07:52:26;;;;;;;16.52;13.95;;;;;;;17.43;90.05;100575.16;7393683;19;20018;-64
2023/10/13 07:55:20;;;;;;;;;;;;;;;17.24;90.66;100582.44;7394079;19;20496;-64
2023/10/13 07:57:54;;;;;;;13.88;10.88;;;;;;;17.23;91.01;100598.66;7392639;19;19943;-64
2023/10/13 08:00:38;;;;;;;14.48;10.85;;;;;;;17.37;90.02;100592.72;7391644;19;20052;-64
2023/10/13 08:06:45;;;;;;;13.48;9.85;;;;;;;17.50;89.91;100589.56;7396715;19;20043;-64
2023/10/13 08:08:43;;;;;;;12.80;8.95;;;;;;;17.41;90.29;100585.22;7388567;19;20492;-64
2023/10/13 08:14:11;;;;;;;12.27;8.90;;;;;;;17.59;89.29;100603.81;7389116;19;20022;-64
2023/10/13 08:16:59;;;;;;;12.05;8.00;;;;;;;17.67;89.32;100594.00;7392438;19;20033;-64
2023/10/13 08:19:39;;;;;;;10.68;6.95;;;;;;;17.80;88.68;100616.81;7389265;19;20021;-64
2023/10/13 08:27:36;;;;;;;12.23;6.40;;;;;;;18.02;87.69;100605.50;7392167;19;20051;-64
2023/10/13 08:32:58;;;;;;;10.77;6.20;;;;;;;17.95;88.19;100599.09;7391536;19;20094;-64
2023/10/13 08:35:33;;;;;;;11.43;6.13;;;;;;;17.99;88.32;100595.94;7390234;19;20074;-64
2023/10/13 08:38:13;;;;;;;13.30;6.05;;;;;;;18.05;87.88;100590.91;7391148;19;20434;-64
2023/10/13 08:43:50;;;;;;;10.55;6.10;;;;;;;18.17;87.62;100581.56;7391438;19;20370;-65
2023/10/13 08:46:29;;;;;;;14.90;6.25;;;;;;;18.23;87.15;100565.63;7391274;19;20353;-64
2023/10/13 08:49:15;;;;;;;12.40;5.25;;;;;;;18.27;87.28;100583.03;7388895;19;20023;-64
2023/10/13 08:51:43;;;;;;;13.30;5.50;;;;;;;18.27;87.04;100583.03;7391625;19;20029;-64
2023/10/13 08:54:20;;;;;;;12.13;5.72;;;;;;;18.29;86.78;100585.56;7390106;19;20066;-64
2023/10/13 08:57:03;;;;;;;11.30;5.22;;;;;;;18.30;86.71;100581.03;7391335;19;20023;-64
2023/10/13 08:59:38;;;;;;;13.48;5.13;;;;;;;18.25;86.99;100584.22;7388090;19;20484;-64
2023/10/13 09:02:17;;;;;;;12.63;4.90;;;;;;;18.31;86.85;100578.19;7390933;19;20014;-64
2023/10/13 09:04:45;;;;;;;13.43;5.43;;;;;;;18.22;86.90;100579.19;7391198;19;20370;-64
2023/10/13 09:07:16;;;;;;;11.00;4.57;;;;;;;18.22;87.24;100582.72;7390695;19;20019;-64
2023/10/13 09:12:35;;;;;;;12.77;4.90;;;;;;;18.18;86.93;100565.28;7390881;19;20022;-65
2023/10/13 09:20:42;;;;;;;13.48;5.75;;;;;;;18.23;87.28;100568.28;7390014;19;20033;-65
2023/10/13 09:23:28;;;;;;;10.57;5.20;;;;;;;18.25;87.32;100555.56;7398092;19;20018;-65
2023/10/13 09:26:12;;;;;;;13.82;5.72;;;;;;;18.26;87.45;100548.38;7397594;19;20019;-65
2023/10/13 09:28:39;;;;;;;10.48;5.15;;;;;;;18.21;87.76;100535.47;7394987;19;20018;-64
2023/10/13 09:31:08;;;;;;;12.25;5.35;;;;;;;18.27;87.71;100521.38;7397586;19;20515;-64
2023/10/13 09:33:36;;;;;;;11.35;5.50;;;;;;;18.34;87.51;100531.44;7396260;19;20015;-65
2023/10/13 09:36:06;;;;;;;9.73;5.38;;;;;;;18.39;87.63;100526.41;7396916;19;20019;-64
2023/10/13 09:38:40;;;;;;;12.63;6.10;;;;;;;18.42;87.41;100512.66;7394932;19;20014;-65
2023/10/13 09:41:26;;;;;;;11.93;6.05;;;;;;;18.43;87.35;100501.78;7397459;19;20015;-64
2023/10/13 09:43:57;;;;;;;12.30;6.22;;;;;;;18.45;87.76;100488.19;7395584;19;20033;-64
2023/10/13 09:46:28;;;;;;;9.82;5.82;;;;;;;18.58;87.20;100479.59;7397143;19;20026;-64
2023/10/13 09:49:14;;;;;;;12.07;6.15;;;;;;;18.70;86.95;100488.97;7394223;19;20102;-64
2023/10/13 09:51:45;;;;;;;11.07;5.25;;;;;;;18.67;87.32;100479.41;7397052;19;20027;-65
2023/10/13 09:54:29;;;;;;;12.98;5.90;;;;;;;18.81;86.80;100466.31;7395120;19;20026;-65
2023/10/13 09:57:17;;;;;;;11.05;5.93;;;;;;;18.86;86.89;100469.34;7395207;19;20055;-65
2023/10/13 10:00:06;;;;;;;13.77;5.93;;;;;;;18.93;86.53;100459.56;7393306;19;20047;-64
2023/10/13 10:02:35;;;;;;;14.43;6.35;;;;;;;18.86;87.21;100446.00;7396432;19;20026;-64
2023/10/13 10:08:04;;;;;;;14.52;5.57;;;;;;;18.95;87.07;100453.00;7393330;19;20018;-64
2023/10/13 10:10:52;;;;;;;10.65;5.90;;;;;;;19.09;86.97;100442.56;7394848;19;20010;-64
2023/10/13 10:13:38;;;;;;;11.68;6.22;;;;;;;19.17;86.30;100435.28;7395472;19;20439;-65
2023/10/13 10:16:20;;;;;;;11.82;5.55;;;;;;;19.16;86.68;100438.16;7396250;19;20022;-64
2023/10/13 10:18:59;;;;;;;10.27;5.97;;;;;;;19.24;86.24;100420.13;7393268;19;20086;-64
2023/10/13 10:21:37;;;;;;;10.00;5.57;;;;;;;19.32;86.60;100413.88;7396816;19;20014;-64
2023/10/13 10:24:29;;;;;;;10.90;5.38;;;;;;;19.33;86.38;100418.22;7396059;19;20547;-64
2023/10/13 10:26:57;;;;;;;12.43;6.17;;;;;;;19.32;86.20;100421.94;7395508;19;20044;-64
2023/10/13 10:29:25;;;;;;;13.38;5.60;;;;;;;19.37;86.35;100421.41;7392780;19;20018;-64
2023/10/13 10:31:52;;;;;;;10.32;5.35;;;;;;;19.42;86.16;100417.16;7394520;19;20022;-65
2023/10/13 10:34:32;;;;;;;12.98;5.82;;;;;;;19.52;85.47;100421.47;7393702;19;20010;-65
2023/10/13 10:37:01;;;;;;;12.80;6.35;;;;;;;19.51;85.65;100423.31;7396119;19;20022;-65
2023/10/13 10:39:45;;;;;;;12.27;6.00;;;;;;;19.54;85.79;100414.91;7392046;19;20480;-65
2023/10/13 10:42:23;;;;;;;12.65;6.20;;;;;;;19.49;85.96;100401.16;7394953;19;20022;-64
2023/10/13 10:44:55;;;;;;;14.65;6.38;;;;;;;19.47;86.21;100414.78;7395439;19;20015;-65
2023/10/13 10:47:33;;;;;;;11.23;6.22;;;;;;;19.51;85.84;100393.75;7395385;19;20082;-65
2023/10/13 10:50:07;;;;;;;13.25;6.30;;;;;;;19.48;85.90;100383.38;7391263;19;20022;-65
2023/10/13 10:52:39;;;;;;;13.60;6.13;;;;;;;19.45;86.23;100373.81;7395011;19;20022;-65
2023/10/13 10:55:07;;;;;;;11.75;6.15;;;;;;;19.44;86.08;100360.59;7392958;19;20022;-65
2023/10/13 10:57:38;;;;;;;13.43;5.35;;;;;;;19.51;85.49;100315.03;7394356;19;20036;-64
2023/10/13 11:00:14;;;;;;;14.27;5.75;;;;;;;19.55;85.28;100322.53;7393019;19;20036;-64
2023/10/13 11:02:42;;;;;;;14.13;6.32;;;;;;;19.59;84.99;100334.59;7394736;19;20043;-63
2023/10/13 11:05:09;;;;;;;14.82;5.60;;;;;;;19.63;84.86;100330.56;7394814;19;20022;-63
2023/10/13 11:07:49;;;;;;;12.57;5.68;;;;;;;19.72;84.18;100337.50;7394134;19;20108;-63
2023/10/13 11:10:38;;;;;;;14.52;5.72;;;;;;;19.71;83.51;100346.59;7393751;19;20018;-63
2023/10/13 11:13:21;;;;;;;12.30;5.28;;;;;;;19.70;83.65;100366.44;7395202;19;20011;-63
2023/10/13 11:15:50;;;;;;;14.13;5.07;;;;;;;19.82;83.30;100348.00;7394562;19;20026;-63
2023/10/13 11:18:33;;;;;;;12.52;5.43;;;;;;;19.88;82.93;100331.16;7393702;19;20056;-63
2023/10/13 11:21:06;;;;;;;12.45;5.40;;;;;;;19.84;83.45;100329.00;7395060;19;20051;-63
2023/10/13 11:23:36;;;;;;;11.90;5.57;;;;;;;19.95;82.66;100329.38;7394186;19;20026;-63
2023/10/13 11:26:05;;;;;;;13.98;5.18;;;;;;;20.07;81.80;100320.84;7393898;19;20394;-63
2023/10/13 11:28:34;;;;;;;13.55;5.72;;;;;;;20.14;81.08;100330.69;7392344;19;20482;-63
2023/10/13 11:31:10;;;;;;;14.30;5.25;;;;;;;20.08;80.87;100314.47;7393678;19;20021;-63
2023/10/13 11:33:46;;;;;;;13.75;5.70;;;;;;;20.09;81.36;100322.34;7392019;19;20030;-63
2023/10/13 11:36:19;;;;;;;16.20;6.25;;;;;;;20.07;81.32;100332.47;7393427;19;20022;-65
2023/10/13 11:41:15;;;;;;;15.57;5.50;;;;;;;20.30;80.13;100312.69;7393303;19;20019;-65
2023/10/13 11:51:46;;;;;;;17.17;6.60;;;;;;;20.31;79.19;100287.47;7392938;19;20026;-65
2023/10/13 11:54:18;;;;;;;13.82;5.43;;;;;;;20.34;78.76;100284.41;7392529;19;20039;-65
2023/10/13 11:56:47;;;;;;;10.85;4.93;;;;;;;20.36;78.32;100274.28;7393277;19;20077;-65
2023/10/13 11:59:18;;;;;;;13.48;5.13;;;;;;;20.41;78.46;100269.16;7391705;19;20022;-65
2023/10/13 12:04:43;;;;;;;14.85;4.95;;;;;;;20.61;76.98;100277.53;7393918;19;20022;-65
2023/10/13 12:09:52;;;;;;;14.60;5.03;;;;;;;20.72;76.54;100252.78;7391523;19;20422;-63
2023/10/13 12:12:19;;;;;;;11.32;4.60;;;;;;;20.75;76.74;100260.47;7394297;19;20086;-63
2023/10/13 12:14:55;;;;;;;14.60;4.85;;;;;;;20.82;75.82;100249.78;7391938;19;20014;-63
2023/10/13 12:17:31;;;;;;;12.70;4.70;;;;;;;20.93;75.66;100247.41;7393933;19;20015;-63
2023/10/13 12:19:59;;;;;;;13.43;4.68;;;;;;;20.86;75.98;100245.66;7390694;19;20014;-63
2023/10/13 12:22:42;;;;;;;14.45;4.85;;;;;;;20.80;75.72;100249.16;7392494;19;20014;-63
2023/10/13 12:25:54;;;;;;;13.65;5.18;;;;;;;20.83;75.69;100235.28;7392474;19;20395;-63
2023/10/13 12:28:23;;;;;;;13.00;4.82;;;;;;;20.81;75.82;100213.94;7392888;19;20041;-63
2023/10/13 12:30:50;;;;;;;14.75;5.20;;;;;;;20.89;75.13;100200.34;7394138;19;20062;-63
2023/10/13 12:33:27;;;;;;;14.95;5.15;;;;;;;20.95;74.74;100214.91;7395904;19;20025;-63
2023/10/13 12:36:09;;;;;;;15.38;5.30;;;;;;;20.94;74.82;100202.47;7392633;19;20014;-63
2023/10/13 12:55:19;;;;;;;16.60;5.13;;;;;;;21.01;73.65;100171.03;7386374;19;20023;-62
2023/10/13 12:57:47;;;;;;;16.92;5.97;;;;;;;20.96;73.35;100170.81;7398390;19;20018;-63
2023/10/13 13:00:23;;;;;;;18.80;5.45;;;;;;;20.97;73.66;100168.94;7395345;19;20074;-63
2023/10/13 13:02:55;;;;;;;18.75;6.28;;;;;;;20.88;73.87;100149.41;7399077;19;20039;-63
2023/10/13 13:05:28;;;;;;;17.00;6.17;;;;;;;20.86;74.25;100159.53;7398696;19;20019;-63
2023/10/13 13:07:56;;;;;;;16.43;4.97;;;;;;;20.78;73.66;100154.28;7398269;19;20078;-63
2023/10/13 13:10:35;;;;;;;15.68;5.53;;;;;;;20.80;73.62;100163.84;7396691;19;20123;-63
2023/10/13 13:13:04;;;;;;;19.02;5.47;;;;;;;20.79;73.30;100147.88;7398963;19;20630;-63
2023/10/13 13:15:32;;;;;;;16.98;4.93;;;;;;;20.77;73.78;100139.19;7396780;19;20014;-63
2023/10/13 13:18:09;;;;;;;15.18;6.85;;;;;;;20.73;73.83;100137.91;7397595;19;20364;-63
2023/10/13 13:20:53;;;;;;;16.83;6.00;;;;;;;20.80;73.02;100128.03;7396956;19;20044;-63
2023/10/13 13:23:25;;;;;;;16.58;5.78;;;;;;;20.84;72.33;100126.63;7397573;19;20487;-63
2023/10/13 13:25:56;;;;;;;16.33;5.22;;;;;;;20.83;72.29;100115.00;7396487;19;20474;-63
2023/10/13 13:28:28;;;;;;;12.10;5.18;;;;;;;20.78;72.92;100122.00;7390892;19;20018;-63
2023/10/13 13:30:57;;;;;;;14.05;5.78;;;;;;;20.78;72.57;100109.38;7400716;19;20015;-63
2023/10/13 13:33:25;;;;;;;19.85;6.03;;;;;;;20.81;72.70;100092.84;7397893;19;20048;-63
2023/10/13 13:35:54;;;;;;;16.15;5.18;;;;;;;20.93;71.84;100104.72;7395982;19;20078;-63
2023/10/13 13:38:30;;;;;;;16.52;5.40;;;;;;;21.11;71.22;100106.91;7396644;19;20390;-63
2023/10/13 13:40:58;;;;;;;12.27;4.70;;;;;;;21.23;70.18;100092.91;7396819;19;20019;-63
2023/10/13 13:43:37;;;;;;;13.77;4.95;;;;;;;21.30;69.35;100088.38;7398807;19;20026;-63
2023/10/13 13:46:10;;;;;;;16.23;5.30;;;;;;;21.27;69.58;100103.06;7398895;19;20022;-63
2023/10/13 13:48:40;;;;;;;15.00;6.00;;;;;;;21.34;69.20;100097.75;7396780;19;20010;-63
2023/10/13 13:51:14;;;;;;;20.88;6.05;;;;;;;21.38;68.83;100088.25;7397337;19;20015;-63
2023/10/13 13:53:47;;;;;;;14.57;5.30;;;;;;;21.40;68.74;100096.94;7396906;19;20026;-63
2023/10/13 13:56:16;;;;;;;18.23;5.13;;;;;;;21.44;68.05;100094.69;7394642;19;20018;-63
2023/10/13 13:58:46;;;;;;;14.20;5.43;;;;;;;21.47;67.84;100097.81;7394503;19;20018;-63
2023/10/13 14:01:25;;;;;;;18.92;5.93;;;;;;;21.50;67.02;100088.50;7395373;19;20800;-63
2023/10/13 14:03:56;;;;;;;18.45;5.72;;;;;;;21.48;67.03;100086.00;7396489;19;20014;-63
2023/10/13 14:06:26;;;;;;;15.98;5.60;;;;;;;21.54;66.63;100095.16;7394550;19;20078;-63
2023/10/13 14:09:32;;;;;;;16.70;5.35;;;;;;;21.61;65.79;100080.66;7392646;19;20081;-63
2023/10/13 14:14:55;;;;;;;19.38;5.30;;;;;;;21.52;65.55;100089.13;7395893;19;20025;-63
2023/10/13 14:17:29;;;;;;;16.65;5.60;;;;;;;21.50;65.68;100081.25;7396186;19;20082;-63
2023/10/13 14:19:57;;;;;;;13.60;6.00;;;;;;;21.58;65.42;100075.69;7392549;19;20358;-65
2023/10/13 14:22:26;;;;;;;16.48;5.57;;;;;;;21.61;64.79;100075.28;7395926;19;20020;-64
2023/10/13 14:24:56;;;;;;;17.98;6.13;;;;;;;21.61;64.61;100077.16;7395469;19;20362;-63
2023/10/13 14:27:25;;;;;;;16.13;5.90;;;;;;;21.63;64.58;100078.59;7396285;19;20007;-64
2023/10/13 14:29:53;;;;;;;14.63;5.00;;;;;;;21.64;64.38;100071.38;7392044;19;20015;-64
2023/10/13 14:32:24;;;;;;;17.02;5.53;;;;;;;21.58;65.05;100072.16;7395737;19;20488;-64
2023/10/13 14:35:00;;;;;;;19.95;5.88;;;;;;;21.53;65.16;100080.03;7394178;19;20022;-64
2023/10/13 14:37:31;;;;;;;16.77;6.10;;;;;;;21.51;65.23;100088.28;7395670;19;20349;-64
2023/10/13 14:39:59;;;;;;;15.13;5.53;;;;;;;21.58;64.39;100086.47;7392056;19;20019;-63
2023/10/13 14:42:28;;;;;;;15.10;5.78;;;;;;;21.60;64.30;100087.09;7395572;19;20018;-63
2023/10/13 14:44:56;;;;;;;16.30;5.57;;;;;;;21.64;64.23;100082.13;7395126;19;20014;-63
2023/10/13 14:47:25;;;;;;;13.52;5.82;;;;;;;21.63;64.13;100088.53;7395341;19;20022;-63
2023/10/13 14:49:59;;;;;;;12.80;5.88;;;;;;;21.64;64.32;100080.28;7392392;19;20014;-62
2023/10/13 14:52:31;;;;;;;14.05;5.25;;;;;;;21.65;64.06;100071.16;7394986;19;20022;-61
2023/10/13 14:55:00;;;;;;;18.88;6.03;;;;;;;21.63;63.70;100065.13;7394156;19;20027;-63
2023/10/13 14:57:28;;;;;;;18.50;6.05;;;;;;;21.61;63.77;100063.66;7395412;19;20041;-62
2023/10/13 14:59:57;;;;;;;16.52;5.75;;;;;;;21.53;63.98;100059.28;7390612;19;20047;-63
2023/10/13 15:02:25;;;;;;;14.75;6.05;;;;;;;21.51;63.65;100063.22;7395349;19;20018;-62
2023/10/13 15:04:53;;;;;;;15.50;6.03;;;;;;;21.53;63.96;100074.63;7394494;19;20105;-63
2023/10/13 15:07:22;;;;;;;13.20;5.82;;;;;;;21.54;64.31;100077.13;7394245;19;20014;-63
2023/10/13 15:09:49;;;;;;;14.75;6.00;;;;;;;21.55;64.10;100059.06;7390732;19;20058;-63
2023/10/13 15:12:20;;;;;;;13.88;6.07;;;;;;;21.53;64.55;100062.00;7394823;19;20019;-63
2023/10/13 15:14:56;;;;;;;17.02;6.10;;;;;;;21.44;64.98;100063.19;7394520;19;20480;-63